Lt Dick Dowling — WDJ3993 — position and weather

sailwx.info

Track history (hours):
 
Tides and Currents Weather Stations Pressure Air Temp Water Temp Dewpoint Dewpoint Depression Visibility Wind Speed Wind Dir Waves Ship Positions

Lt Dick Dowling

Owner: Buffalo Marine Service, Inc., Houston, TX. More information available from US FCC via Universal Licensing System and Coast Guard Vessel Documentation Center.

Last reported at 2017-Oct-16 23:20 UTC. Time now 2017-Oct-18 02:05 UTC.
Position N 30°04' W 093°41'.

Length 21 m; draft 9.5 m.

Type: Tug. MMSI: 367773360.

Date/timePositionNaut miles runAvg speedWind from/ knotsBaromVisibWave heightAir tempDewpointWater temp
2017-Oct-16 23:20N 30°04' W 093°41'2 6.3
2017-Oct-16 23:00N 30°04' W 093°39'3 5.8
2017-Oct-16 22:30N 30°04' W 093°36'3 5.7
2017-Oct-16 22:00N 30°04' W 093°32'3 5.7
2017-Oct-16 21:30N 30°04' W 093°29'3 5.7
2017-Oct-16 21:00N 30°04' W 093°26'3 5.8
2017-Oct-16 20:30N 30°04' W 093°22'2 4.1
2017-Oct-16 19:59N 30°05' W 093°20'2 5.1
2017-Oct-16 19:30N 30°07' W 093°20'3 6.6
2017-Oct-16 19:00N 30°10' W 093°19'3 7.0
2017-Oct-16 18:30N 30°12' W 093°16'2 3.3
2017-Oct-16 17:59N 30°14' W 093°15'0 0.0
2017-Oct-16 17:20N 30°14' W 093°15'0 0.1
2017-Oct-16 16:59N 30°14' W 093°15'0 0.0
2017-Oct-16 16:14N 30°14' W 093°15'0 0.0
2017-Oct-16 15:56N 30°14' W 093°15'0 0.0
2017-Oct-16 15:29N 30°14' W 093°15'0 0.0
2017-Oct-16 13:41N 30°14' W 093°15'0 0.0
2017-Oct-15 23:58N 30°14' W 093°15'1 1.4
2017-Oct-15 23:30N 30°13' W 093°14'1 2.1
2017-Oct-15 23:00N 30°13' W 093°15'0 0.0
2017-Oct-15 22:30N 30°13' W 093°15'0 0.0
2017-Oct-15 22:00N 30°13' W 093°15'0 0.0
2017-Oct-15 21:27N 30°13' W 093°15'0 0.0
2017-Oct-15 20:57N 30°13' W 093°15'0 0.0
2017-Oct-15 20:30N 30°13' W 093°15'0 0.0
2017-Oct-15 20:00N 30°13' W 093°15'0 0.0
2017-Oct-15 19:27N 30°13' W 093°15'0 0.0
2017-Oct-15 19:00N 30°13' W 093°15'0 0.0
2017-Oct-15 18:30N 30°13' W 093°15'0 0.0
2017-Oct-15 16:33N 30°13' W 093°15'0 0.0
2017-Oct-15 16:21N 30°13' W 093°15'0 0.0
2017-Oct-15 15:27N 30°13' W 093°15'0 0.0
2017-Oct-15 14:57N 30°13' W 093°15'0 0.3
2017-Oct-15 14:00N 30°13' W 093°16'1 1.1
2017-Oct-15 13:29N 30°13' W 093°16'0 0.0
2017-Oct-15 12:59N 30°13' W 093°16'0 0.0
2017-Oct-15 12:29N 30°13' W 093°16'0 0.0
2017-Oct-15 11:59N 30°13' W 093°16'0 0.0
2017-Oct-15 11:29N 30°13' W 093°16'0 0.0
2017-Oct-15 10:59N 30°13' W 093°16'0 0.0
2017-Oct-15 10:29N 30°13' W 093°16'0 0.0
2017-Oct-15 09:59N 30°13' W 093°16'0 0.0
2017-Oct-15 09:29N 30°13' W 093°16'0 0.0
2017-Oct-15 08:59N 30°13' W 093°16'0 0.0
2017-Oct-15 08:29N 30°13' W 093°16'0 0.0
2017-Oct-15 07:59N 30°13' W 093°16'0 0.0
2017-Oct-15 07:29N 30°13' W 093°16'0 0.0
2017-Oct-15 06:59N 30°13' W 093°16'0 0.0
2017-Oct-15 06:29N 30°13' W 093°16'0 0.0
2017-Oct-15 05:59N 30°13' W 093°16'0 0.0
2017-Oct-15 05:29N 30°13' W 093°16'0 0.0
2017-Oct-15 04:59N 30°13' W 093°16'0 0.0
2017-Oct-15 04:29N 30°13' W 093°16'0 0.0
2017-Oct-15 03:59N 30°13' W 093°16'0 0.0
2017-Oct-15 03:29N 30°13' W 093°16'0 0.0
2017-Oct-15 02:59N 30°13' W 093°16'0 0.0
2017-Oct-15 02:29N 30°13' W 093°16'0 0.3
2017-Oct-15 02:00N 30°13' W 093°16'1 1.9
2017-Oct-15 01:31N 30°12' W 093°16'1 1.7
2017-Oct-15 01:00N 30°12' W 093°17'3 5.5
2017-Oct-15 00:30N 30°10' W 093°19'3 5.4
2017-Oct-15 00:00N 30°07' W 093°20'3 5.2
2017-Oct-14 23:30N 30°05' W 093°20'2 4.8
2017-Oct-14 23:00N 30°04' W 093°23'3 5.4
2017-Oct-14 22:30N 30°04' W 093°26'3 5.4
2017-Oct-14 22:00N 30°04' W 093°29'3 5.5
2017-Oct-14 21:30N 30°04' W 093°32'3 5.2
2017-Oct-14 21:00N 30°04' W 093°35'3 5.6
2017-Oct-14 20:27N 30°04' W 093°39'72 3.4
2017-Oct-13 23:22N 29°32' W 094°54'2 6.7
2017-Oct-13 23:00N 29°34' W 094°56'3 6.6
2017-Oct-13 22:29N 29°37' W 094°58'3 6.7
2017-Oct-13 22:00N 29°40' W 094°59'3 6.7
2017-Oct-13 21:30N 29°43' W 095°01'10 0.7
2017-Oct-13 08:30N 29°45' W 095°12'0 0.0
2017-Oct-13 07:57N 29°44' W 095°12'0 0.0
2017-Oct-13 06:48N 29°45' W 095°12'0 0.0
2017-Oct-13 06:30N 29°45' W 095°12'0 0.0
2017-Oct-13 06:00N 29°45' W 095°12'0 0.0
2017-Oct-13 04:39N 29°45' W 095°12'0 0.0
2017-Oct-13 04:24N 29°45' W 095°12'0 0.0
2017-Oct-13 03:57N 29°45' W 095°12'0 0.0
2017-Oct-13 03:18N 29°44' W 095°12'0 0.0
2017-Oct-13 02:57N 29°44' W 095°12'0 0.0
2017-Oct-13 02:12N 29°44' W 095°12'0 0.0
2017-Oct-13 01:57N 29°45' W 095°12'0 0.0
2017-Oct-13 01:30N 29°44' W 095°12'0 0.0
2017-Oct-13 01:00N 29°44' W 095°12'0 0.0
2017-Oct-13 00:30N 29°44' W 095°12'0 0.0
2017-Oct-12 23:54N 29°44' W 095°12'1 1.9
2017-Oct-12 23:30N 29°45' W 095°11'3 5.8
2017-Oct-12 23:00N 29°44' W 095°08'4 2.4
2017-Oct-12 21:10N 29°44' W 095°03'0 0.0
2017-Oct-12 06:57N 29°44' W 095°03'0 0.0
2017-Oct-11 22:18N 29°44' W 095°03'3 0.6
2017-Oct-11 17:50N 29°46' W 095°05'4 6.0
2017-Oct-11 17:15N 29°44' W 095°09'7 0.4
2017-Oct-10 23:50N 29°44' W 095°16'0 0.0
2017-Oct-10 23:29N 29°44' W 095°16'0 0.1
2017-Oct-10 20:01N 29°43' W 095°16'0 2.0
2017-Oct-10 19:53N 29°44' W 095°16'1 1.4
2017-Oct-10 18:54N 29°45' W 095°17'1 1.7
2017-Oct-10 18:16N 29°44' W 095°17'0 0.0
2017-Oct-10 16:04N 29°44' W 095°17'0 0.0
2017-Oct-10 15:55N 29°44' W 095°17'0 0.0
2017-Oct-10 09:58N 29°44' W 095°17'0 0.0
2017-Oct-10 09:10N 29°44' W 095°17'0 0.0
2017-Oct-10 08:37N 29°44' W 095°17'0 0.0
2017-Oct-10 08:16N 29°44' W 095°17'0 0.0
2017-Oct-10 07:55N 29°44' W 095°17'0 0.0
2017-Oct-10 07:19N 29°44' W 095°17'0 0.0
2017-Oct-10 06:58N 29°44' W 095°17'0 0.0
2017-Oct-10 06:29N 29°44' W 095°17'2 4.7
2017-Oct-10 05:57N 29°44' W 095°14'3 6.0
2017-Oct-10 05:29N 29°45' W 095°11'7 1.5
2017-Oct-10 00:46N 29°44' W 095°03'0 0.0
2017-Oct-09 14:09N 29°44' W 095°03'0 1.9
2017-Oct-09 13:59N 29°44' W 095°03'1 0.2
2017-Oct-09 08:01N 29°45' W 095°04'0 6.7
2017-Oct-09 07:58N 29°45' W 095°04'3 5.8
2017-Oct-09 07:30N 29°43' W 095°01'2 4.9
2017-Oct-09 07:00N 29°41' W 094°60'1 0.1
2017-Oct-08 21:33N 29°41' W 095°00'0 1.2
2017-Oct-08 21:31N 29°41' W 095°00'1 2.7
2017-Oct-08 21:00N 29°42' W 095°01'3 6.4
2017-Oct-08 20:30N 29°44' W 095°04'  
Track history (hours):
 
Tides and Currents Weather Stations Pressure Air Temp Water Temp Dewpoint Dewpoint Depression Visibility Wind Speed Wind Dir Waves Ship Positions

Lt Dick Dowling

Owner: Buffalo Marine Service, Inc., Houston, TX. More information available from US FCC via Universal Licensing System and Coast Guard Vessel Documentation Center.

Last reported at 2017-Oct-16 23:20 UTC. Time now 2017-Oct-18 02:05 UTC.
Position N 30°04' W 093°41'.

Length 21 m; draft 9.5 m.

Type: Tug. MMSI: 367773360.

Date/timePositionNaut miles runAvg speedWind from/ knotsBaromVisibWave heightAir tempDewpointWater temp
2017-Oct-16 23:20N 30°04' W 093°41'2 6.3
2017-Oct-16 23:00N 30°04' W 093°39'3 5.8
2017-Oct-16 22:30N 30°04' W 093°36'3 5.7
2017-Oct-16 22:00N 30°04' W 093°32'3 5.7
2017-Oct-16 21:30N 30°04' W 093°29'3 5.7
2017-Oct-16 21:00N 30°04' W 093°26'3 5.8
2017-Oct-16 20:30N 30°04' W 093°22'2 4.1
2017-Oct-16 19:59N 30°05' W 093°20'2 5.1
2017-Oct-16 19:30N 30°07' W 093°20'3 6.6
2017-Oct-16 19:00N 30°10' W 093°19'3 7.0
2017-Oct-16 18:30N 30°12' W 093°16'2 3.3
2017-Oct-16 17:59N 30°14' W 093°15'0 0.0
2017-Oct-16 17:20N 30°14' W 093°15'0 0.1
2017-Oct-16 16:59N 30°14' W 093°15'0 0.0
2017-Oct-16 16:14N 30°14' W 093°15'0 0.0
2017-Oct-16 15:56N 30°14' W 093°15'0 0.0
2017-Oct-16 15:29N 30°14' W 093°15'0 0.0
2017-Oct-16 13:41N 30°14' W 093°15'0 0.0
2017-Oct-15 23:58N 30°14' W 093°15'1 1.4
2017-Oct-15 23:30N 30°13' W 093°14'1 2.1
2017-Oct-15 23:00N 30°13' W 093°15'0 0.0
2017-Oct-15 22:30N 30°13' W 093°15'0 0.0
2017-Oct-15 22:00N 30°13' W 093°15'0 0.0
2017-Oct-15 21:27N 30°13' W 093°15'0 0.0
2017-Oct-15 20:57N 30°13' W 093°15'0 0.0
2017-Oct-15 20:30N 30°13' W 093°15'0 0.0
2017-Oct-15 20:00N 30°13' W 093°15'0 0.0
2017-Oct-15 19:27N 30°13' W 093°15'0 0.0
2017-Oct-15 19:00N 30°13' W 093°15'0 0.0
2017-Oct-15 18:30N 30°13' W 093°15'0 0.0
2017-Oct-15 16:33N 30°13' W 093°15'0 0.0
2017-Oct-15 16:21N 30°13' W 093°15'0 0.0
2017-Oct-15 15:27N 30°13' W 093°15'0 0.0
2017-Oct-15 14:57N 30°13' W 093°15'0 0.3
2017-Oct-15 14:00N 30°13' W 093°16'1 1.1
2017-Oct-15 13:29N 30°13' W 093°16'0 0.0
2017-Oct-15 12:59N 30°13' W 093°16'0 0.0
2017-Oct-15 12:29N 30°13' W 093°16'0 0.0
2017-Oct-15 11:59N 30°13' W 093°16'0 0.0
2017-Oct-15 11:29N 30°13' W 093°16'0 0.0
2017-Oct-15 10:59N 30°13' W 093°16'0 0.0
2017-Oct-15 10:29N 30°13' W 093°16'0 0.0
2017-Oct-15 09:59N 30°13' W 093°16'0 0.0
2017-Oct-15 09:29N 30°13' W 093°16'0 0.0
2017-Oct-15 08:59N 30°13' W 093°16'0 0.0
2017-Oct-15 08:29N 30°13' W 093°16'0 0.0
2017-Oct-15 07:59N 30°13' W 093°16'0 0.0
2017-Oct-15 07:29N 30°13' W 093°16'0 0.0
2017-Oct-15 06:59N 30°13' W 093°16'0 0.0
2017-Oct-15 06:29N 30°13' W 093°16'0 0.0
2017-Oct-15 05:59N 30°13' W 093°16'0 0.0
2017-Oct-15 05:29N 30°13' W 093°16'0 0.0
2017-Oct-15 04:59N 30°13' W 093°16'0 0.0
2017-Oct-15 04:29N 30°13' W 093°16'0 0.0
2017-Oct-15 03:59N 30°13' W 093°16'0 0.0
2017-Oct-15 03:29N 30°13' W 093°16'0 0.0
2017-Oct-15 02:59N 30°13' W 093°16'0 0.0
2017-Oct-15 02:29N 30°13' W 093°16'0 0.3
2017-Oct-15 02:00N 30°13' W 093°16'1 1.9
2017-Oct-15 01:31N 30°12' W 093°16'1 1.7
2017-Oct-15 01:00N 30°12' W 093°17'3 5.5
2017-Oct-15 00:30N 30°10' W 093°19'3 5.4
2017-Oct-15 00:00N 30°07' W 093°20'3 5.2
2017-Oct-14 23:30N 30°05' W 093°20'2 4.8
2017-Oct-14 23:00N 30°04' W 093°23'3 5.4
2017-Oct-14 22:30N 30°04' W 093°26'3 5.4
2017-Oct-14 22:00N 30°04' W 093°29'3 5.5
2017-Oct-14 21:30N 30°04' W 093°32'3 5.2
2017-Oct-14 21:00N 30°04' W 093°35'3 5.6
2017-Oct-14 20:27N 30°04' W 093°39'72 3.4
2017-Oct-13 23:22N 29°32' W 094°54'2 6.7
2017-Oct-13 23:00N 29°34' W 094°56'3 6.6
2017-Oct-13 22:29N 29°37' W 094°58'3 6.7
2017-Oct-13 22:00N 29°40' W 094°59'3 6.7
2017-Oct-13 21:30N 29°43' W 095°01'10 0.7
2017-Oct-13 08:30N 29°45' W 095°12'0 0.0
2017-Oct-13 07:57N 29°44' W 095°12'0 0.0
2017-Oct-13 06:48N 29°45' W 095°12'0 0.0
2017-Oct-13 06:30N 29°45' W 095°12'0 0.0
2017-Oct-13 06:00N 29°45' W 095°12'0 0.0
2017-Oct-13 04:39N 29°45' W 095°12'0 0.0
2017-Oct-13 04:24N 29°45' W 095°12'0 0.0
2017-Oct-13 03:57N 29°45' W 095°12'0 0.0
2017-Oct-13 03:18N 29°44' W 095°12'0 0.0
2017-Oct-13 02:57N 29°44' W 095°12'0 0.0
2017-Oct-13 02:12N 29°44' W 095°12'0 0.0
2017-Oct-13 01:57N 29°45' W 095°12'0 0.0
2017-Oct-13 01:30N 29°44' W 095°12'0 0.0
2017-Oct-13 01:00N 29°44' W 095°12'0 0.0
2017-Oct-13 00:30N 29°44' W 095°12'0 0.0
2017-Oct-12 23:54N 29°44' W 095°12'1 1.9
2017-Oct-12 23:30N 29°45' W 095°11'3 5.8
2017-Oct-12 23:00N 29°44' W 095°08'4 2.4
2017-Oct-12 21:10N 29°44' W 095°03'0 0.0
2017-Oct-12 06:57N 29°44' W 095°03'0 0.0
2017-Oct-11 22:18N 29°44' W 095°03'3 0.6
2017-Oct-11 17:50N 29°46' W 095°05'4 6.0
2017-Oct-11 17:15N 29°44' W 095°09'7 0.4
2017-Oct-10 23:50N 29°44' W 095°16'0 0.0
2017-Oct-10 23:29N 29°44' W 095°16'0 0.1
2017-Oct-10 20:01N 29°43' W 095°16'0 2.0
2017-Oct-10 19:53N 29°44' W 095°16'1 1.4
2017-Oct-10 18:54N 29°45' W 095°17'1 1.7
2017-Oct-10 18:16N 29°44' W 095°17'0 0.0
2017-Oct-10 16:04N 29°44' W 095°17'0 0.0
2017-Oct-10 15:55N 29°44' W 095°17'0 0.0
2017-Oct-10 09:58N 29°44' W 095°17'0 0.0
2017-Oct-10 09:10N 29°44' W 095°17'0 0.0
2017-Oct-10 08:37N 29°44' W 095°17'0 0.0
2017-Oct-10 08:16N 29°44' W 095°17'0 0.0
2017-Oct-10 07:55N 29°44' W 095°17'0 0.0
2017-Oct-10 07:19N 29°44' W 095°17'0 0.0
2017-Oct-10 06:58N 29°44' W 095°17'0 0.0
2017-Oct-10 06:29N 29°44' W 095°17'2 4.7
2017-Oct-10 05:57N 29°44' W 095°14'3 6.0
2017-Oct-10 05:29N 29°45' W 095°11'7 1.5
2017-Oct-10 00:46N 29°44' W 095°03'0 0.0
2017-Oct-09 14:09N 29°44' W 095°03'0 1.9
2017-Oct-09 13:59N 29°44' W 095°03'1 0.2
2017-Oct-09 08:01N 29°45' W 095°04'0 6.7
2017-Oct-09 07:58N 29°45' W 095°04'3 5.8
2017-Oct-09 07:30N 29°43' W 095°01'2 4.9
2017-Oct-09 07:00N 29°41' W 094°60'1 0.1
2017-Oct-08 21:33N 29°41' W 095°00'0 1.2
2017-Oct-08 21:31N 29°41' W 095°00'1 2.7
2017-Oct-08 21:00N 29°42' W 095°01'3 6.4
2017-Oct-08 20:30N 29°44' W 095°04'  

Dump ship's entire track history